aviador You're here:

LFRM Decoded Metar

LE MANS in FRANCE
Report Time2017-10-22 06:00:00
UTC Time2017-10-22 06:26:47
Flight Rules vfr VFR
Wind250° at 07 kt
W.Decomp.*RWY 20: 4.4 kt HW 5.4 kt RCW
W.Rank250° ranks 2
Current wind is above 250° avg. (6.2)
Visibility9999 m
Phenomena:N/A
Clouds:N/A
Expected CloudBase > 1,200 ft AGL from Temp-Dew spread
CeilingNone
Temp09°C (ISA -6)
Dew Point06°C (82% RH)
AAT5.6°C
QNH1020 hPa
Density Alt-617 ft
Elevation171 ft
Report Wrong Elevation
Raw Report
LFRM 220600Z AUTO 25007KT 210V280 CAVOK 09/06 Q1020 NOSIG=

Extra information for LFRM:More info

Metar Taf Metar & Taf Last 4 Metars F.Rules Stats Wind Profile Meteogram Temp Stats Airport Information Weather charts Add Link Nearby VenuesMetar ALERT Operation Metar Decoded Social comments